createdAt,value
2023-02-14T00:00:58.307Z,22.98
2023-02-14T00:02:02.010Z,25.83
2023-02-14T00:03:06.024Z,25.73
2023-02-14T00:04:08.651Z,25.73
2023-02-14T00:05:14.433Z,23.08
2023-02-14T00:06:17.702Z,23.83
2023-02-14T00:07:21.837Z,26.25
2023-02-14T00:08:25.975Z,25.92
2023-02-14T00:09:29.585Z,29.60
2023-02-14T00:10:32.358Z,31.15
2023-02-14T00:11:38.508Z,27.15
2023-02-14T00:12:41.116Z,25.63
2023-02-14T00:14:05.903Z,26.73
2023-02-14T00:15:23.309Z,25.73
2023-02-14T00:16:26.495Z,23.65
2023-02-14T00:17:31.105Z,25.70
2023-02-14T00:18:55.069Z,23.92
2023-02-14T00:19:58.864Z,24.13
2023-02-14T00:21:01.247Z,25.40
2023-02-14T00:22:05.348Z,22.27
2023-02-14T00:23:07.909Z,26.63
2023-02-14T00:24:15.846Z,28.48
2023-02-14T00:25:18.944Z,29.08
2023-02-14T00:26:23.359Z,35.35
2023-02-14T00:27:28.028Z,25.60
2023-02-14T00:28:30.922Z,24.50
2023-02-14T00:29:35.044Z,22.92
2023-02-14T00:30:37.951Z,23.70
2023-02-14T00:31:43.356Z,26.83
2023-02-14T00:32:47.466Z,22.27
2023-02-14T00:33:49.987Z,25.23
2023-02-14T00:34:53.912Z,27.98
2023-02-14T00:35:56.999Z,27.00
2023-02-14T00:38:36.913Z,29.92
2023-02-14T00:39:42.471Z,24.20
2023-02-14T00:40:45.158Z,23.95
2023-02-14T00:41:49.476Z,26.58
2023-02-14T00:42:53.205Z,25.90
2023-02-14T00:44:02.166Z,26.33
2023-02-14T00:45:06.564Z,26.90
2023-02-14T00:46:11.255Z,31.55
2023-02-14T00:47:16.181Z,31.70
2023-02-14T00:48:18.705Z,26.48
2023-02-14T00:49:22.630Z,26.92
2023-02-14T00:50:25.328Z,26.75
2023-02-14T00:51:30.646Z,26.58
2023-02-14T00:52:34.695Z,28.80
2023-02-14T00:53:37.716Z,28.17
2023-02-14T00:54:45.333Z,30.60
2023-02-14T00:55:49.626Z,21.70
2023-02-14T00:56:53.486Z,27.25
2023-02-14T00:57:56.295Z,32.65
2023-02-14T00:59:01.289Z,24.13
2023-02-14T01:00:05.968Z,23.05
2023-02-14T01:01:09.717Z,25.92
2023-02-14T01:02:13.722Z,22.15
2023-02-14T01:03:16.377Z,23.83
2023-02-14T01:04:20.428Z,23.80
2023-02-14T01:05:23.113Z,24.00
2023-02-14T01:06:27.430Z,25.30
2023-02-14T01:07:32.528Z,21.80
2023-02-14T01:08:37.595Z,24.58
2023-02-14T01:09:42.872Z,24.75
2023-02-14T01:10:46.916Z,21.98
2023-02-14T01:11:49.653Z,26.20
2023-02-14T01:12:53.553Z,24.70
2023-02-14T01:13:57.834Z,25.45
2023-02-14T01:15:03.008Z,23.77
2023-02-14T01:16:07.843Z,23.35
2023-02-14T01:17:12.222Z,20.27
2023-02-14T01:18:15.876Z,20.58
2023-02-14T01:19:19.610Z,19.35
2023-02-14T01:20:22.174Z,27.55
2023-02-14T01:21:28.068Z,27.83
2023-02-14T01:23:58.806Z,24.40
2023-02-14T01:25:02.765Z,22.92
2023-02-14T01:26:07.800Z,19.83
2023-02-14T01:31:16.018Z,20.98
2023-02-14T01:32:18.562Z,21.42
2023-02-14T01:36:43.835Z,21.17
2023-02-14T01:37:48.713Z,23.25
2023-02-14T01:38:53.070Z,24.27
2023-02-14T01:39:56.546Z,26.33
2023-02-14T01:41:00.824Z,28.45
2023-02-14T01:42:04.701Z,24.05
2023-02-14T01:43:13.569Z,22.23
2023-02-14T01:44:56.262Z,22.92
2023-02-14T01:45:59.298Z,22.48
2023-02-14T01:47:06.354Z,22.77
2023-02-14T01:48:10.280Z,21.75
2023-02-14T01:49:18.190Z,22.85
2023-02-14T01:50:26.439Z,23.20
2023-02-14T01:51:31.570Z,21.63
2023-02-14T01:52:38.224Z,24.58
2023-02-14T01:53:43.134Z,22.73
2023-02-14T01:54:51.594Z,23.38
2023-02-14T01:56:06.895Z,21.60
2023-02-14T01:57:12.513Z,23.77
2023-02-14T01:58:21.756Z,19.75
2023-02-14T01:59:28.177Z,20.00
2023-02-14T02:00:49.836Z,24.23
2023-02-14T02:01:54.246Z,21.13
2023-02-14T02:02:57.305Z,22.77
2023-02-14T02:04:08.575Z,19.80
2023-02-14T02:05:12.212Z,20.50
2023-02-14T02:06:18.554Z,21.58
2023-02-14T02:07:26.129Z,24.10
2023-02-14T02:08:30.125Z,20.90
2023-02-14T02:09:34.793Z,21.88
2023-02-14T02:10:38.546Z,20.63
2023-02-14T02:11:43.275Z,23.27
2023-02-14T02:12:47.299Z,18.63
2023-02-14T02:13:50.294Z,21.23
2023-02-14T02:14:59.065Z,23.90
2023-02-14T02:16:27.461Z,24.73
2023-02-14T02:17:40.085Z,24.00
2023-02-14T02:18:58.458Z,20.42
2023-02-14T02:20:48.836Z,20.83
2023-02-14T02:22:26.924Z,22.10
2023-02-14T02:24:09.235Z,22.45
2023-02-14T02:25:28.208Z,21.80
2023-02-14T02:27:00.773Z,20.60
2023-02-14T02:28:32.140Z,22.70
2023-02-14T02:30:11.076Z,22.90
2023-02-14T02:31:39.344Z,25.02
2023-02-14T02:33:18.968Z,23.95
2023-02-14T02:35:06.660Z,23.30
2023-02-14T02:36:32.096Z,20.98
2023-02-14T02:37:43.383Z,22.35
2023-02-14T02:39:07.124Z,23.70
2023-02-14T02:40:23.217Z,23.08
2023-02-14T02:41:35.798Z,21.75
2023-02-14T02:42:50.218Z,22.50
2023-02-14T02:43:57.155Z,23.00
2023-02-14T02:45:11.300Z,21.52
2023-02-14T02:46:39.996Z,21.58
2023-02-14T02:47:56.452Z,22.92
2023-02-14T02:49:06.087Z,22.13
2023-02-14T02:50:39.268Z,21.40
2023-02-14T02:52:07.611Z,21.42
2023-02-14T02:53:21.214Z,22.73
2023-02-14T02:54:31.492Z,22.60
2023-02-14T02:56:03.490Z,23.02
2023-02-14T02:57:15.490Z,23.63
2023-02-14T02:58:20.291Z,23.63
2023-02-14T02:59:27.871Z,21.05
2023-02-14T03:00:32.472Z,23.70
2023-02-14T03:01:41.667Z,22.33
2023-02-14T03:03:07.422Z,22.25
2023-02-14T03:04:31.106Z,21.63
2023-02-14T03:05:36.787Z,22.48
2023-02-14T03:06:40.238Z,17.90
2023-02-14T03:07:42.667Z,19.27
2023-02-14T03:08:48.926Z,19.35
2023-02-14T03:09:54.342Z,21.20
2023-02-14T03:10:59.768Z,19.00
2023-02-14T03:12:23.031Z,18.83
2023-02-14T03:13:49.810Z,19.80
2023-02-14T03:14:57.470Z,19.23
2023-02-14T03:16:25.399Z,20.95
2023-02-14T03:17:36.343Z,18.50
2023-02-14T03:18:54.453Z,21.98
2023-02-14T03:20:14.568Z,24.20
2023-02-14T03:21:26.708Z,21.85
2023-02-14T03:22:42.511Z,22.60
2023-02-14T03:23:54.557Z,21.58
2023-02-14T03:25:07.547Z,20.15
2023-02-14T03:26:16.936Z,21.95
2023-02-14T03:27:28.332Z,24.55
2023-02-14T03:28:40.517Z,19.50
2023-02-14T03:29:53.957Z,21.65
2023-02-14T03:31:03.586Z,23.33
2023-02-14T03:32:13.611Z,20.23
2023-02-14T03:33:23.220Z,22.98
2023-02-14T03:34:35.470Z,21.45
2023-02-14T03:35:46.898Z,23.40
2023-02-14T03:36:56.379Z,21.27
2023-02-14T03:38:09.403Z,24.10
2023-02-14T03:39:16.462Z,25.35
2023-02-14T03:40:24.859Z,28.70
2023-02-14T03:41:33.652Z,23.55
2023-02-14T03:42:41.286Z,23.85
2023-02-14T03:43:48.816Z,25.23
2023-02-14T03:44:56.282Z,22.60
2023-02-14T03:46:04.900Z,22.95
2023-02-14T03:47:14.101Z,21.23
2023-02-14T03:48:19.149Z,22.27
2023-02-14T03:49:27.958Z,20.80
2023-02-14T03:50:33.507Z,20.80
2023-02-14T03:51:38.853Z,24.05
2023-02-14T03:52:44.154Z,24.23
2023-02-14T03:53:52.014Z,20.52
2023-02-14T03:54:58.999Z,20.77
2023-02-14T03:56:08.961Z,19.27
2023-02-14T03:57:18.621Z,23.92
2023-02-14T03:58:29.712Z,24.70
2023-02-14T03:59:33.022Z,19.75
2023-02-14T04:00:41.891Z,23.02
2023-02-14T04:01:50.439Z,20.25
2023-02-14T04:02:57.534Z,20.90
2023-02-14T04:04:06.137Z,21.17
2023-02-14T04:05:20.051Z,21.85
2023-02-14T04:06:26.157Z,22.95
2023-02-14T04:07:28.562Z,20.10
2023-02-14T04:08:33.948Z,21.48
2023-02-14T04:09:36.611Z,20.17
2023-02-14T04:10:44.566Z,20.65
2023-02-14T04:11:50.461Z,18.65
2023-02-14T04:12:55.898Z,23.50
2023-02-14T04:13:58.959Z,22.95
2023-02-14T04:15:03.055Z,24.05
2023-02-14T04:16:06.780Z,21.00
2023-02-14T04:17:28.112Z,21.77
2023-02-14T04:18:49.149Z,22.08
2023-02-14T04:19:52.687Z,24.33
2023-02-14T04:20:55.132Z,24.17
2023-02-14T04:21:59.163Z,24.00
2023-02-14T04:23:03.547Z,22.05
2023-02-14T04:24:10.173Z,23.67
2023-02-14T04:25:12.972Z,24.20
2023-02-14T04:26:17.658Z,22.73
2023-02-14T04:27:20.353Z,21.85
2023-02-14T04:28:24.239Z,22.52
2023-02-14T04:29:27.326Z,20.13
2023-02-14T04:30:32.012Z,22.45
2023-02-14T04:31:37.500Z,23.10
2023-02-14T04:32:41.862Z,21.23
2023-02-14T04:33:46.244Z,21.10
2023-02-14T04:34:50.919Z,23.92
2023-02-14T04:35:53.582Z,24.20
2023-02-14T04:36:57.131Z,23.02
2023-02-14T04:38:01.342Z,23.23
2023-02-14T04:39:03.982Z,18.05
2023-02-14T04:40:10.513Z,18.67
2023-02-14T04:41:13.428Z,24.02
2023-02-14T04:42:17.926Z,18.63
2023-02-14T04:43:20.558Z,18.90
2023-02-14T04:44:24.186Z,21.75
2023-02-14T04:46:45.889Z,19.08
2023-02-14T04:47:48.785Z,18.27
2023-02-14T04:48:52.166Z,22.00
2023-02-14T04:49:54.745Z,18.70
2023-02-14T04:50:59.762Z,22.27
2023-02-14T04:52:03.599Z,22.75
2023-02-14T04:53:08.220Z,21.67
2023-02-14T04:54:11.543Z,23.85
2023-02-14T04:55:16.849Z,22.98
2023-02-14T04:56:19.635Z,23.55
2023-02-14T04:57:23.733Z,25.17
2023-02-14T04:58:26.646Z,24.70
2023-02-14T04:59:31.702Z,27.48
2023-02-14T05:00:34.541Z,22.25
2023-02-14T05:01:38.666Z,21.67
2023-02-14T05:02:41.640Z,21.48
2023-02-14T05:03:46.074Z,21.80
2023-02-14T05:04:49.834Z,22.30
2023-02-14T05:05:53.803Z,22.25
2023-02-14T05:06:56.475Z,22.25
2023-02-14T05:08:00.479Z,21.67
2023-02-14T05:09:04.511Z,22.92
2023-02-14T05:10:10.031Z,20.40
2023-02-14T05:11:15.726Z,20.05
2023-02-14T05:12:20.387Z,19.60
2023-02-14T05:13:24.527Z,20.13
2023-02-14T05:14:28.545Z,20.38
2023-02-14T05:15:31.017Z,18.70
2023-02-14T05:16:36.423Z,19.48
2023-02-14T05:17:39.019Z,21.15
2023-02-14T05:18:44.531Z,22.73
2023-02-14T05:19:47.075Z,22.88
2023-02-14T05:20:53.207Z,20.35
2023-02-14T05:21:56.626Z,21.20
2023-02-14T05:23:05.426Z,22.08
2023-02-14T05:24:08.451Z,20.75
2023-02-14T05:25:13.064Z,23.35
2023-02-14T05:26:17.308Z,22.50
2023-02-14T05:27:21.152Z,20.33
2023-02-14T05:28:24.451Z,22.13
2023-02-14T05:29:28.997Z,18.05
2023-02-14T05:30:32.827Z,18.17
2023-02-14T05:31:37.522Z,16.10
2023-02-14T05:32:42.161Z,16.13
2023-02-14T05:33:45.935Z,17.80
2023-02-14T05:34:48.537Z,17.95
2023-02-14T05:35:52.823Z,20.02
2023-02-14T05:36:56.062Z,18.13
2023-02-14T05:38:00.766Z,22.65
2023-02-14T05:39:03.530Z,22.02
2023-02-14T05:40:11.017Z,24.17
2023-02-14T05:41:13.885Z,17.85
2023-02-14T05:42:20.271Z,17.73
2023-02-14T05:43:23.238Z,16.90
2023-02-14T05:44:28.091Z,19.45
2023-02-14T05:45:31.073Z,19.10
2023-02-14T05:46:35.442Z,19.55
2023-02-14T05:47:39.208Z,17.00
2023-02-14T05:48:43.109Z,19.48
2023-02-14T05:49:45.430Z,21.35
2023-02-14T05:50:50.302Z,22.92
2023-02-14T05:51:54.318Z,18.83
2023-02-14T05:52:56.657Z,23.02
2023-02-14T05:54:01.304Z,17.35
2023-02-14T05:55:04.117Z,18.88
2023-02-14T05:56:09.207Z,20.40
2023-02-14T05:57:11.718Z,18.27
2023-02-14T05:58:17.173Z,20.65
2023-02-14T05:59:21.285Z,18.45
2023-02-14T06:00:24.609Z,19.83
2023-02-14T06:01:28.800Z,17.25
2023-02-14T06:02:31.670Z,18.23
2023-02-14T06:03:37.001Z,17.63
2023-02-14T06:04:40.295Z,19.38
2023-02-14T06:05:45.207Z,21.10
2023-02-14T06:06:47.938Z,21.35
2023-02-14T06:07:52.639Z,18.13
2023-02-14T06:08:55.763Z,19.30
2023-02-14T06:10:03.657Z,18.13
2023-02-14T06:11:08.720Z,17.77
2023-02-14T06:12:11.450Z,19.25
2023-02-14T06:13:17.199Z,16.50
2023-02-14T06:14:19.862Z,20.55
2023-02-14T06:15:23.678Z,18.92
2023-02-14T06:16:27.723Z,18.95
2023-02-14T06:17:30.672Z,17.52
2023-02-14T06:18:35.472Z,19.98
2023-02-14T06:19:38.491Z,20.73
2023-02-14T06:20:42.439Z,18.83
2023-02-14T06:21:47.600Z,21.20
2023-02-14T06:22:51.678Z,19.60
2023-02-14T06:23:56.374Z,21.35
2023-02-14T06:24:58.805Z,19.77
2023-02-14T06:26:02.723Z,22.63
2023-02-14T06:27:06.668Z,25.23
2023-02-14T06:28:11.537Z,23.10
2023-02-14T06:29:17.419Z,24.00
2023-02-14T06:30:21.585Z,21.33
2023-02-14T06:31:27.529Z,20.52
2023-02-14T06:32:30.443Z,19.75
2023-02-14T06:33:33.849Z,18.25
2023-02-14T06:34:37.568Z,19.27
2023-02-14T06:35:41.741Z,19.63
2023-02-14T06:36:45.130Z,18.90
2023-02-14T06:37:49.873Z,19.95
2023-02-14T06:38:53.588Z,18.80
2023-02-14T06:39:58.037Z,20.73
2023-02-14T06:41:04.578Z,18.88
2023-02-14T06:42:09.798Z,18.52
2023-02-14T06:43:15.717Z,19.23
2023-02-14T06:44:22.083Z,18.25
2023-02-14T06:45:25.149Z,19.10
2023-02-14T06:46:29.117Z,19.98
2023-02-14T06:47:34.960Z,20.90
2023-02-14T06:48:39.172Z,20.98
2023-02-14T06:49:42.126Z,19.85
2023-02-14T06:50:46.001Z,18.92
2023-02-14T06:51:48.993Z,21.20
2023-02-14T06:52:53.198Z,21.17
2023-02-14T06:53:57.054Z,20.10
2023-02-14T06:55:00.115Z,22.60
2023-02-14T06:56:04.151Z,20.85
2023-02-14T06:57:08.149Z,20.67
2023-02-14T06:58:12.300Z,21.35
2023-02-14T06:59:14.933Z,20.80
2023-02-14T07:00:24.194Z,25.52
2023-02-14T07:01:28.215Z,31.25
2023-02-14T07:02:32.120Z,21.10
2023-02-14T07:03:34.631Z,21.23
2023-02-14T07:04:38.663Z,18.63
2023-02-14T07:05:41.345Z,19.30
2023-02-14T07:06:44.924Z,19.65
2023-02-14T07:07:48.261Z,20.67
2023-02-14T07:08:51.595Z,23.83
2023-02-14T07:09:53.792Z,22.98
2023-02-14T07:10:58.889Z,22.15
2023-02-14T07:12:01.428Z,23.60
2023-02-14T07:13:05.475Z,22.25
2023-02-14T07:14:08.820Z,24.17
2023-02-14T07:15:13.318Z,22.52
2023-02-14T07:16:18.066Z,23.77
2023-02-14T07:17:20.297Z,22.85
2023-02-14T07:18:23.620Z,24.67
2023-02-14T07:19:26.985Z,23.38
2023-02-14T07:20:29.476Z,19.33
2023-02-14T07:21:32.670Z,23.23
2023-02-14T07:22:34.860Z,23.48
2023-02-14T07:23:37.984Z,19.70
2023-02-14T07:24:41.172Z,21.65
2023-02-14T07:25:43.542Z,19.70
2023-02-14T07:26:46.792Z,18.98
2023-02-14T07:27:50.238Z,20.23
2023-02-14T07:28:52.454Z,20.10
2023-02-14T07:29:55.972Z,17.83
2023-02-14T07:31:01.710Z,19.05
2023-02-14T07:32:06.950Z,19.40
2023-02-14T07:33:09.748Z,19.40
2023-02-14T07:34:13.200Z,20.92
2023-02-14T07:35:16.587Z,21.02
2023-02-14T07:36:19.355Z,19.42
2023-02-14T07:37:22.512Z,21.85
2023-02-14T07:38:24.821Z,19.63
2023-02-14T07:39:28.102Z,21.85
2023-02-14T07:40:30.334Z,18.85
2023-02-14T07:41:33.599Z,19.70
2023-02-14T07:42:36.832Z,19.17
2023-02-14T07:43:40.677Z,19.10
2023-02-14T07:44:42.988Z,21.02
2023-02-14T07:45:46.623Z,20.75
2023-02-14T07:46:48.816Z,21.00
2023-02-14T07:47:55.386Z,17.90
2023-02-14T07:48:58.538Z,20.73
2023-02-14T07:50:00.566Z,21.02
2023-02-14T07:51:03.934Z,19.33
2023-02-14T07:52:06.110Z,20.73
2023-02-14T07:53:09.529Z,17.48
2023-02-14T07:54:12.638Z,19.50
2023-02-14T07:55:16.286Z,19.67
2023-02-14T07:56:19.441Z,19.60
2023-02-14T07:57:21.612Z,18.83
2023-02-14T07:58:24.750Z,19.00
2023-02-14T07:59:27.861Z,18.65
2023-02-14T08:00:31.623Z,19.15
2023-02-14T08:01:34.819Z,19.77
2023-02-14T08:02:37.921Z,18.92
2023-02-14T08:03:44.509Z,19.25
2023-02-14T08:04:47.647Z,19.67
2023-02-14T08:05:57.204Z,18.60
2023-02-14T08:07:00.433Z,19.33
2023-02-14T08:08:02.457Z,19.95
2023-02-14T08:09:05.535Z,19.10
2023-02-14T08:10:11.390Z,17.75
2023-02-14T08:11:36.294Z,20.42
2023-02-14T08:12:56.766Z,19.63
2023-02-14T08:13:58.951Z,19.00
2023-02-14T08:15:15.862Z,16.77
2023-02-14T08:16:19.066Z,17.55
2023-02-14T08:17:21.226Z,19.42
2023-02-14T08:18:24.590Z,19.77
2023-02-14T08:19:29.494Z,19.55
2023-02-14T08:20:32.798Z,19.70
2023-02-14T08:21:35.889Z,19.40
2023-02-14T08:22:37.967Z,18.92
2023-02-14T08:24:00.131Z,21.48
2023-02-14T08:25:02.294Z,18.42
2023-02-14T08:26:05.629Z,21.30
2023-02-14T08:27:07.779Z,17.95
2023-02-14T08:28:11.113Z,16.38
2023-02-14T08:29:16.624Z,21.13
2023-02-14T08:30:19.149Z,19.58
2023-02-14T08:31:35.123Z,21.55
2023-02-14T08:32:38.452Z,19.77
2023-02-14T08:33:44.240Z,21.95
2023-02-14T08:34:48.360Z,21.40
2023-02-14T08:35:52.778Z,18.70
2023-02-14T08:36:55.437Z,18.40
2023-02-14T08:37:58.893Z,19.50
2023-02-14T08:39:01.471Z,21.85
2023-02-14T08:40:04.834Z,17.63
2023-02-14T08:41:09.113Z,18.38
2023-02-14T08:42:12.069Z,19.60
2023-02-14T08:43:16.317Z,21.55
2023-02-14T08:44:22.392Z,19.63
2023-02-14T08:45:24.506Z,19.75
2023-02-14T08:46:27.672Z,19.45
2023-02-14T08:47:31.283Z,17.73
2023-02-14T08:48:38.797Z,19.80
2023-02-14T08:49:42.342Z,20.05
2023-02-14T08:50:47.112Z,18.33
2023-02-14T08:51:50.240Z,19.77
2023-02-14T08:52:53.405Z,19.35
2023-02-14T08:53:56.516Z,19.85
2023-02-14T08:54:58.822Z,21.33
2023-02-14T08:56:04.818Z,19.63
2023-02-14T08:57:08.241Z,17.52
2023-02-14T08:58:10.585Z,19.50
2023-02-14T08:59:13.931Z,17.40
2023-02-14T09:00:16.919Z,18.08
2023-02-14T09:01:20.188Z,20.30
2023-02-14T09:02:23.405Z,17.63
2023-02-14T09:03:26.714Z,19.52
2023-02-14T09:04:28.885Z,21.48
2023-02-14T09:05:32.510Z,19.40
2023-02-14T09:06:38.677Z,19.27
2023-02-14T09:07:40.735Z,20.25
2023-02-14T09:08:44.995Z,19.50
2023-02-14T09:09:47.207Z,21.27
2023-02-14T09:10:50.279Z,20.40
2023-02-14T09:11:52.328Z,20.95
2023-02-14T09:12:55.687Z,18.77
2023-02-14T09:13:58.311Z,18.73
2023-02-14T09:15:01.411Z,20.08
2023-02-14T09:16:05.397Z,20.55
2023-02-14T09:17:08.925Z,19.67
2023-02-14T09:18:12.135Z,20.63
2023-02-14T09:19:15.654Z,18.58
2023-02-14T09:20:18.798Z,19.08
2023-02-14T09:21:23.874Z,19.70
2023-02-14T09:22:28.888Z,19.50
2023-02-14T09:23:31.272Z,20.77
2023-02-14T09:24:36.349Z,19.83
2023-02-14T09:25:39.533Z,19.85
2023-02-14T09:26:42.203Z,20.90
2023-02-14T09:27:45.449Z,20.85
2023-02-14T09:28:49.327Z,20.95
2023-02-14T09:29:52.472Z,22.27
2023-02-14T09:30:55.560Z,19.40
2023-02-14T09:31:59.693Z,21.05
2023-02-14T09:33:04.536Z,21.40
2023-02-14T09:34:06.662Z,18.50
2023-02-14T09:35:09.954Z,18.20
2023-02-14T09:36:21.415Z,18.77
2023-02-14T09:37:24.510Z,17.88
2023-02-14T09:38:28.147Z,18.85
2023-02-14T09:39:31.319Z,20.90
2023-02-14T09:40:34.768Z,19.13
2023-02-14T09:42:01.259Z,19.52
2023-02-14T09:43:13.281Z,20.85
2023-02-14T09:44:26.054Z,20.02
2023-02-14T09:45:31.675Z,20.00
2023-02-14T09:46:43.192Z,19.50
2023-02-14T09:47:50.698Z,19.55
2023-02-14T09:48:54.836Z,18.27
2023-02-14T09:49:58.485Z,17.33
2023-02-14T09:51:05.154Z,17.30
2023-02-14T09:52:14.579Z,17.48
2023-02-14T09:53:23.954Z,18.13
2023-02-14T09:54:29.821Z,20.35
2023-02-14T09:55:39.802Z,18.13
2023-02-14T09:56:52.224Z,19.10
2023-02-14T09:58:07.415Z,17.17
2023-02-14T09:59:16.265Z,19.40
2023-02-14T10:00:24.483Z,18.27
2023-02-14T10:01:31.749Z,18.15
2023-02-14T10:02:49.938Z,17.85
2023-02-14T10:04:18.636Z,18.20
2023-02-14T10:05:26.181Z,17.58
2023-02-14T10:06:47.036Z,18.20
2023-02-14T10:07:58.800Z,17.63
2023-02-14T10:09:09.601Z,16.45
2023-02-14T10:10:17.915Z,18.90
2023-02-14T10:11:24.782Z,19.58
2023-02-14T10:12:32.617Z,17.52
2023-02-14T10:13:41.802Z,18.85
2023-02-14T10:14:45.244Z,17.27
2023-02-14T10:15:51.977Z,19.30
2023-02-14T10:16:59.652Z,19.45
2023-02-14T10:18:10.722Z,18.83
2023-02-14T10:19:20.797Z,19.38
2023-02-14T10:20:28.177Z,20.70
2023-02-14T10:21:37.236Z,19.90
2023-02-14T10:22:45.329Z,19.35
2023-02-14T10:23:54.475Z,20.23
2023-02-14T10:25:02.888Z,20.40
2023-02-14T10:26:10.702Z,20.05
2023-02-14T10:27:27.604Z,19.10
2023-02-14T10:28:36.410Z,20.70
2023-02-14T10:29:40.132Z,20.20
2023-02-14T10:30:48.456Z,21.42
2023-02-14T10:31:56.413Z,19.33
2023-02-14T10:33:06.333Z,20.33
2023-02-14T10:34:17.014Z,20.35
2023-02-14T10:35:31.048Z,21.00
2023-02-14T10:36:48.167Z,20.80
2023-02-14T10:38:02.311Z,19.75
2023-02-14T10:39:22.121Z,20.20
2023-02-14T10:40:45.889Z,19.40
2023-02-14T10:41:51.983Z,19.75
2023-02-14T10:43:02.271Z,20.90
2023-02-14T10:44:19.333Z,19.73
2023-02-14T10:45:29.877Z,19.17
2023-02-14T10:46:41.914Z,18.95
2023-02-14T10:47:52.948Z,19.85
2023-02-14T10:49:03.271Z,19.55
2023-02-14T10:50:17.772Z,20.33
2023-02-14T10:51:25.810Z,19.10
2023-02-14T10:52:36.310Z,18.85
2023-02-14T10:53:44.969Z,19.33
2023-02-14T10:54:54.125Z,20.30
2023-02-14T10:56:03.747Z,19.30
2023-02-14T10:57:15.795Z,19.98
2023-02-14T10:58:22.253Z,19.58
2023-02-14T10:59:28.697Z,19.02
2023-02-14T11:00:35.375Z,20.13
2023-02-14T11:01:38.692Z,21.08
2023-02-14T11:02:45.046Z,19.33
2023-02-14T11:04:04.209Z,18.35
2023-02-14T11:05:08.069Z,20.90
2023-02-14T11:06:12.746Z,18.88
2023-02-14T11:07:16.228Z,21.15
2023-02-14T11:08:26.325Z,18.88
2023-02-14T11:09:29.355Z,20.13
2023-02-14T11:10:35.706Z,19.83
2023-02-14T11:11:41.160Z,20.15
2023-02-14T11:12:45.656Z,20.08
2023-02-14T11:13:48.955Z,18.55
2023-02-14T11:15:10.968Z,19.90
2023-02-14T11:16:20.737Z,19.95
2023-02-14T11:17:28.805Z,20.83
2023-02-14T11:18:35.722Z,19.17
2023-02-14T11:19:38.938Z,19.55
2023-02-14T11:20:42.039Z,19.95
2023-02-14T11:21:46.683Z,21.15
2023-02-14T11:22:50.342Z,20.30
2023-02-14T11:23:53.395Z,20.55
2023-02-14T11:25:04.881Z,19.50
2023-02-14T11:26:15.442Z,20.48
2023-02-14T11:27:21.139Z,20.13
2023-02-14T11:28:25.740Z,19.40
2023-02-14T11:29:31.491Z,19.63
2023-02-14T11:30:41.061Z,17.80
2023-02-14T11:31:44.731Z,20.08
2023-02-14T11:32:56.073Z,21.67
2023-02-14T11:34:01.881Z,18.55
2023-02-14T11:35:09.179Z,19.50
2023-02-14T11:36:14.668Z,18.95
2023-02-14T11:37:26.174Z,19.70
2023-02-14T11:38:31.739Z,19.63
2023-02-14T11:39:36.440Z,20.10
2023-02-14T11:40:41.398Z,19.80
2023-02-14T11:41:49.544Z,20.45
2023-02-14T11:42:57.827Z,19.15
2023-02-14T11:44:22.338Z,19.00
2023-02-14T11:45:34.582Z,18.35
2023-02-14T11:46:47.606Z,17.00
2023-02-14T11:48:10.201Z,17.08
2023-02-14T11:49:29.610Z,17.85
2023-02-14T11:50:33.114Z,18.05
2023-02-14T11:51:40.188Z,17.95
2023-02-14T11:52:50.311Z,19.25
2023-02-14T11:53:55.975Z,17.63
2023-02-14T11:55:00.330Z,18.38
2023-02-14T11:56:02.487Z,20.40
2023-02-14T11:57:08.738Z,18.60
2023-02-14T11:58:31.905Z,17.65
2023-02-14T11:59:42.063Z,17.95
2023-02-14T12:00:52.838Z,17.60
2023-02-14T12:01:57.842Z,17.00
2023-02-14T12:03:04.754Z,18.05
2023-02-14T12:04:16.068Z,19.05
2023-02-14T12:05:21.541Z,17.50
2023-02-14T12:06:26.564Z,18.35
2023-02-14T12:07:33.121Z,17.60
2023-02-14T12:08:38.992Z,19.35
2023-02-14T12:09:43.247Z,18.60
2023-02-14T12:11:01.616Z,17.88
2023-02-14T12:12:16.597Z,16.95
2023-02-14T12:13:26.648Z,17.00
2023-02-14T12:14:32.932Z,17.25
2023-02-14T12:15:40.437Z,17.83
2023-02-14T12:16:50.210Z,17.45
2023-02-14T12:17:57.747Z,16.70
2023-02-14T12:19:04.751Z,17.10
2023-02-14T12:20:11.951Z,19.20
2023-02-14T12:21:41.816Z,17.35
2023-02-14T12:22:50.932Z,19.20
2023-02-14T12:24:04.316Z,16.88
2023-02-14T12:25:12.947Z,18.55
2023-02-14T12:26:25.271Z,17.48
2023-02-14T12:27:31.309Z,17.60
2023-02-14T12:28:40.247Z,15.90
2023-02-14T12:29:48.421Z,17.40
2023-02-14T12:30:53.097Z,16.73
2023-02-14T12:32:02.047Z,16.75
2023-02-14T12:33:17.470Z,18.02
2023-02-14T12:34:21.431Z,17.13
2023-02-14T12:35:42.192Z,16.38
2023-02-14T12:37:07.042Z,16.60
2023-02-14T12:38:18.489Z,16.73
2023-02-14T12:39:29.263Z,16.85
2023-02-14T12:40:43.086Z,16.40
2023-02-14T12:41:53.319Z,18.40
2023-02-14T12:43:09.905Z,15.93
2023-02-14T12:44:22.430Z,16.25
2023-02-14T12:45:43.361Z,15.75
2023-02-14T12:47:14.424Z,17.00
2023-02-14T12:48:28.506Z,16.38
2023-02-14T12:50:00.364Z,16.05
2023-02-14T12:51:11.609Z,17.00
2023-02-14T12:52:34.081Z,17.35
2023-02-14T12:53:49.050Z,16.60
2023-02-14T12:55:06.175Z,16.55
2023-02-14T12:56:17.714Z,16.63
2023-02-14T12:57:36.580Z,16.95
2023-02-14T12:58:47.742Z,16.63
2023-02-14T12:59:58.705Z,16.42
2023-02-14T13:01:28.393Z,17.10
2023-02-14T13:03:10.948Z,16.75
2023-02-14T13:04:55.148Z,14.98
2023-02-14T13:06:05.647Z,16.05
2023-02-14T13:07:16.167Z,16.10
2023-02-14T13:08:31.639Z,17.08
2023-02-14T13:09:40.580Z,17.77
2023-02-14T13:10:56.891Z,16.38
2023-02-14T13:12:14.008Z,16.27
2023-02-14T13:13:25.432Z,17.98
2023-02-14T13:14:46.536Z,18.15
2023-02-14T13:15:56.887Z,16.35
2023-02-14T13:17:08.506Z,16.27
2023-02-14T13:18:22.673Z,16.80
2023-02-14T13:19:36.377Z,16.85
2023-02-14T13:20:49.701Z,17.48
2023-02-14T13:21:52.489Z,17.77
2023-02-14T13:22:56.957Z,19.33
2023-02-14T13:24:13.183Z,17.45
2023-02-14T13:25:30.993Z,18.45
2023-02-14T13:26:39.716Z,17.38
2023-02-14T13:27:43.114Z,17.05
2023-02-14T13:28:51.351Z,17.35
2023-02-14T13:29:58.839Z,17.45
2023-02-14T13:31:02.861Z,17.65
2023-02-14T13:32:06.886Z,18.30
2023-02-14T13:33:24.319Z,17.38
2023-02-14T13:34:30.526Z,17.02
2023-02-14T13:35:34.632Z,17.77
2023-02-14T13:36:38.602Z,17.55
2023-02-14T13:37:46.356Z,16.80
2023-02-14T13:38:51.535Z,19.13
2023-02-14T13:39:57.448Z,17.95
2023-02-14T13:41:02.361Z,18.35
2023-02-14T13:42:05.112Z,17.98
2023-02-14T13:43:08.276Z,19.65
2023-02-14T13:44:11.302Z,17.95
2023-02-14T13:46:04.142Z,17.63
2023-02-14T13:47:08.085Z,17.92
2023-02-14T13:48:13.002Z,19.80
2023-02-14T13:49:27.908Z,17.30
2023-02-14T13:50:30.078Z,17.90
2023-02-14T13:51:50.136Z,18.13
2023-02-14T13:52:52.240Z,17.08
2023-02-14T13:53:55.871Z,17.20
2023-02-14T13:55:04.421Z,17.15
2023-02-14T13:56:35.350Z,17.10
2023-02-14T13:57:41.343Z,19.90
2023-02-14T13:58:48.106Z,18.95
2023-02-14T14:00:31.238Z,18.55
2023-02-14T14:01:40.516Z,19.13
2023-02-14T14:02:45.766Z,17.25
2023-02-14T14:03:58.026Z,18.02
2023-02-14T14:05:02.462Z,17.80
2023-02-14T14:06:07.149Z,17.52
2023-02-14T14:07:27.130Z,16.40
2023-02-14T14:08:45.030Z,18.10
2023-02-14T14:09:56.665Z,17.50
2023-02-14T14:11:01.754Z,16.77
2023-02-14T14:12:05.079Z,17.48
2023-02-14T14:13:09.074Z,18.38
2023-02-14T14:14:36.175Z,17.55
2023-02-14T14:15:59.543Z,17.08
2023-02-14T14:17:02.509Z,17.05
2023-02-14T14:18:38.471Z,18.02
2023-02-14T14:19:42.767Z,17.20
2023-02-14T14:20:49.080Z,19.50
2023-02-14T14:22:01.893Z,16.95
2023-02-14T14:23:25.807Z,18.17
2023-02-14T14:24:31.552Z,17.08
2023-02-14T14:25:38.051Z,19.17
2023-02-14T14:26:43.726Z,18.08
2023-02-14T14:27:47.879Z,17.80
2023-02-14T14:28:50.182Z,18.45
2023-02-14T14:29:56.051Z,18.20
2023-02-14T14:30:59.864Z,18.35
2023-02-14T14:32:10.218Z,19.45
2023-02-14T14:33:18.075Z,19.67
2023-02-14T14:34:21.436Z,18.30
2023-02-14T14:35:26.273Z,18.08
2023-02-14T14:36:29.799Z,18.27
2023-02-14T14:37:34.473Z,18.40
2023-02-14T14:38:50.059Z,19.30
2023-02-14T14:39:54.737Z,18.20
2023-02-14T14:40:57.255Z,19.92
2023-02-14T14:42:08.204Z,18.00
2023-02-14T14:43:14.774Z,18.30
2023-02-14T14:44:18.396Z,16.55
2023-02-14T14:45:25.124Z,19.00